MOL Globe — VRIH6 — position and weather

sailwx.info

Track history (hours):
 
Tides and Currents Weather Stations Pressure Air Temp Water Temp Dewpoint Dewpoint Depression Visibility Wind Speed Wind Dir Waves Ship Positions

MOL Globe

Last reported at 2017-Oct-20 16:47 UTC. Time now 2017-Oct-22 06:19 UTC.
Position N 01°36' E 103°01'.

Length 275 m; draft 10.8 m.

Type: Cargo ship. MMSI: 477802700.

Date/timePositionNaut miles runAvg speedWind from/ knotsBaromVisibWave heightAir tempDewpointWater temp
2017-Oct-20 16:47N 01°36' E 103°01'515.0
2017-Oct-20 16:26N 01°32' E 103°05'915.0
2017-Oct-20 15:49N 01°26' E 103°12'515.0
2017-Oct-20 15:30N 01°23' E 103°15'815.0
2017-Oct-20 14:59N 01°18' E 103°21'1414.5
2017-Oct-20 14:01N 01°12' E 103°34'713.2
2017-Oct-20 13:30N 01°13' E 103°40'613.0
2017-Oct-20 13:00N 01°17' E 103°45'1 1.1
2017-Oct-20 12:08N 01°17' E 103°46'0 0.0
2017-Oct-20 11:51N 01°17' E 103°46'0 0.0
2017-Oct-20 11:29N 01°17' E 103°46'0 0.0
2017-Oct-20 10:54N 01°17' E 103°46'0 0.0
2017-Oct-20 10:30N 01°17' E 103°46'0 0.0
2017-Oct-20 09:57N 01°17' E 103°46'0 0.0
2017-Oct-20 09:29N 01°17' E 103°46'0 0.0
2017-Oct-20 08:57N 01°17' E 103°46'0 0.0
2017-Oct-20 08:25N 01°17' E 103°46'0 0.0
2017-Oct-20 07:59N 01°17' E 103°46'0 0.0
2017-Oct-20 07:27N 01°17' E 103°46'0 0.0
2017-Oct-20 06:57N 01°17' E 103°46'0 0.0
2017-Oct-20 06:29N 01°17' E 103°46'0 0.0
2017-Oct-20 05:59N 01°17' E 103°46'0 0.0
2017-Oct-20 05:25N 01°17' E 103°46'0 0.0
2017-Oct-20 04:57N 01°17' E 103°46'0 0.0
2017-Oct-20 04:29N 01°17' E 103°46'0 0.0
2017-Oct-20 03:58N 01°17' E 103°46'0 0.0
2017-Oct-20 03:28N 01°17' E 103°46'0 0.0
2017-Oct-20 02:58N 01°17' E 103°46'0 0.0
2017-Oct-20 02:30N 01°17' E 103°46'0 0.0
2017-Oct-20 01:59N 01°17' E 103°46'0 0.0
2017-Oct-20 01:29N 01°17' E 103°46'0 0.0
2017-Oct-20 00:59N 01°17' E 103°46'0 0.1
2017-Oct-20 00:30N 01°17' E 103°46'1 1.1
2017-Oct-20 00:00N 01°17' E 103°46'1 2.6
2017-Oct-19 23:30N 01°16' E 103°46'510.1
2017-Oct-19 23:00N 01°12' E 103°49'4 8.9
2017-Oct-19 22:30N 01°14' E 103°54'4 6.8
2017-Oct-19 21:59N 01°15' E 103°57'  
2017-Oct-17 07:06N 21°52' E 114°21'423.6
2017-Oct-17 06:56N 21°56' E 114°22'921.8
2017-Oct-17 06:30N 22°05' E 114°22'20 1.1
2017-Oct-16 12:04N 22°20' E 114°07'15 6.6
2017-Oct-16 09:46N 22°08' E 114°18'245 8.8
2017-Oct-15 06:05N 23°48' E 118°21'110.1
2017-Oct-15 05:57N 23°48' E 118°22'5 9.9
2017-Oct-15 05:29N 23°50' E 118°27'610.1
2017-Oct-15 04:56N 23°52' E 118°32'  
2017-Oct-12 18:24N 34°07' E 134°55'717.5
2017-Oct-12 18:00N 34°14' E 134°58'816.6
2017-Oct-12 17:30N 34°22' E 134°60'1020.2
2017-Oct-12 17:00N 34°29' E 135°09'1019.3
2017-Oct-12 16:30N 34°36' E 135°16'3 6.4
2017-Oct-12 16:00N 34°39' E 135°15'0 0.0
2017-Oct-12 15:29N 34°39' E 135°15'0 0.0
2017-Oct-12 14:59N 34°39' E 135°15'0 0.0
2017-Oct-12 14:29N 34°39' E 135°15'0 0.0
2017-Oct-12 13:59N 34°39' E 135°15'0 0.0
2017-Oct-12 13:23N 34°39' E 135°15'0 0.0
2017-Oct-12 12:59N 34°39' E 135°15'0 0.0
2017-Oct-12 12:23N 34°39' E 135°15'0 0.0
2017-Oct-12 11:53N 34°39' E 135°15'0 0.0
2017-Oct-12 11:17N 34°39' E 135°15'0 0.0
2017-Oct-12 10:49N 34°39' E 135°15'0 0.0
2017-Oct-12 10:25N 34°39' E 135°15'0 0.0
2017-Oct-12 09:55N 34°39' E 135°15'0 0.0
2017-Oct-12 09:19N 34°39' E 135°15'0 0.0
2017-Oct-12 08:55N 34°39' E 135°15'0 0.0
2017-Oct-12 08:27N 34°39' E 135°15'0 0.0
2017-Oct-12 07:56N 34°39' E 135°15'0 0.0
2017-Oct-12 07:22N 34°39' E 135°15'0 0.0
2017-Oct-12 06:58N 34°39' E 135°15'0 0.0
2017-Oct-12 06:26N 34°39' E 135°15'0 0.0
2017-Oct-12 05:56N 34°39' E 135°15'0 0.0
2017-Oct-12 05:28N 34°39' E 135°15'0 0.0
2017-Oct-12 04:54N 34°39' E 135°15'0 0.0
2017-Oct-12 04:30N 34°39' E 135°15'0 0.0
2017-Oct-12 04:00N 34°39' E 135°15'0 0.0
2017-Oct-12 03:24N 34°39' E 135°15'0 0.0
2017-Oct-12 03:00N 34°39' E 135°15'2 3.6
2017-Oct-12 02:30N 34°38' E 135°16'612.0
2017-Oct-12 02:00N 34°33' E 135°14'816.0
2017-Oct-12 01:30N 34°26' E 135°07'816.8
2017-Oct-12 01:00N 34°20' E 135°01'815.7
2017-Oct-12 00:30N 34°12' E 134°57'5 9.5
2017-Oct-12 00:00N 34°08' E 134°56'917.3
2017-Oct-11 23:29N 33°59' E 134°57'  
Track history (hours):
 
Tides and Currents Weather Stations Pressure Air Temp Water Temp Dewpoint Dewpoint Depression Visibility Wind Speed Wind Dir Waves Ship Positions

MOL Globe

Last reported at 2017-Oct-20 16:47 UTC. Time now 2017-Oct-22 06:19 UTC.
Position N 01°36' E 103°01'.

Length 275 m; draft 10.8 m.

Type: Cargo ship. MMSI: 477802700.

Date/timePositionNaut miles runAvg speedWind from/ knotsBaromVisibWave heightAir tempDewpointWater temp
2017-Oct-20 16:47N 01°36' E 103°01'515.0
2017-Oct-20 16:26N 01°32' E 103°05'915.0
2017-Oct-20 15:49N 01°26' E 103°12'515.0
2017-Oct-20 15:30N 01°23' E 103°15'815.0
2017-Oct-20 14:59N 01°18' E 103°21'1414.5
2017-Oct-20 14:01N 01°12' E 103°34'713.2
2017-Oct-20 13:30N 01°13' E 103°40'613.0
2017-Oct-20 13:00N 01°17' E 103°45'1 1.1
2017-Oct-20 12:08N 01°17' E 103°46'0 0.0
2017-Oct-20 11:51N 01°17' E 103°46'0 0.0
2017-Oct-20 11:29N 01°17' E 103°46'0 0.0
2017-Oct-20 10:54N 01°17' E 103°46'0 0.0
2017-Oct-20 10:30N 01°17' E 103°46'0 0.0
2017-Oct-20 09:57N 01°17' E 103°46'0 0.0
2017-Oct-20 09:29N 01°17' E 103°46'0 0.0
2017-Oct-20 08:57N 01°17' E 103°46'0 0.0
2017-Oct-20 08:25N 01°17' E 103°46'0 0.0
2017-Oct-20 07:59N 01°17' E 103°46'0 0.0
2017-Oct-20 07:27N 01°17' E 103°46'0 0.0
2017-Oct-20 06:57N 01°17' E 103°46'0 0.0
2017-Oct-20 06:29N 01°17' E 103°46'0 0.0
2017-Oct-20 05:59N 01°17' E 103°46'0 0.0
2017-Oct-20 05:25N 01°17' E 103°46'0 0.0
2017-Oct-20 04:57N 01°17' E 103°46'0 0.0
2017-Oct-20 04:29N 01°17' E 103°46'0 0.0
2017-Oct-20 03:58N 01°17' E 103°46'0 0.0
2017-Oct-20 03:28N 01°17' E 103°46'0 0.0
2017-Oct-20 02:58N 01°17' E 103°46'0 0.0
2017-Oct-20 02:30N 01°17' E 103°46'0 0.0
2017-Oct-20 01:59N 01°17' E 103°46'0 0.0
2017-Oct-20 01:29N 01°17' E 103°46'0 0.0
2017-Oct-20 00:59N 01°17' E 103°46'0 0.1
2017-Oct-20 00:30N 01°17' E 103°46'1 1.1
2017-Oct-20 00:00N 01°17' E 103°46'1 2.6
2017-Oct-19 23:30N 01°16' E 103°46'510.1
2017-Oct-19 23:00N 01°12' E 103°49'4 8.9
2017-Oct-19 22:30N 01°14' E 103°54'4 6.8
2017-Oct-19 21:59N 01°15' E 103°57'  
2017-Oct-17 07:06N 21°52' E 114°21'423.6
2017-Oct-17 06:56N 21°56' E 114°22'921.8
2017-Oct-17 06:30N 22°05' E 114°22'20 1.1
2017-Oct-16 12:04N 22°20' E 114°07'15 6.6
2017-Oct-16 09:46N 22°08' E 114°18'245 8.8
2017-Oct-15 06:05N 23°48' E 118°21'110.1
2017-Oct-15 05:57N 23°48' E 118°22'5 9.9
2017-Oct-15 05:29N 23°50' E 118°27'610.1
2017-Oct-15 04:56N 23°52' E 118°32'  
2017-Oct-12 18:24N 34°07' E 134°55'717.5
2017-Oct-12 18:00N 34°14' E 134°58'816.6
2017-Oct-12 17:30N 34°22' E 134°60'1020.2
2017-Oct-12 17:00N 34°29' E 135°09'1019.3
2017-Oct-12 16:30N 34°36' E 135°16'3 6.4
2017-Oct-12 16:00N 34°39' E 135°15'0 0.0
2017-Oct-12 15:29N 34°39' E 135°15'0 0.0
2017-Oct-12 14:59N 34°39' E 135°15'0 0.0
2017-Oct-12 14:29N 34°39' E 135°15'0 0.0
2017-Oct-12 13:59N 34°39' E 135°15'0 0.0
2017-Oct-12 13:23N 34°39' E 135°15'0 0.0
2017-Oct-12 12:59N 34°39' E 135°15'0 0.0
2017-Oct-12 12:23N 34°39' E 135°15'0 0.0
2017-Oct-12 11:53N 34°39' E 135°15'0 0.0
2017-Oct-12 11:17N 34°39' E 135°15'0 0.0
2017-Oct-12 10:49N 34°39' E 135°15'0 0.0
2017-Oct-12 10:25N 34°39' E 135°15'0 0.0
2017-Oct-12 09:55N 34°39' E 135°15'0 0.0
2017-Oct-12 09:19N 34°39' E 135°15'0 0.0
2017-Oct-12 08:55N 34°39' E 135°15'0 0.0
2017-Oct-12 08:27N 34°39' E 135°15'0 0.0
2017-Oct-12 07:56N 34°39' E 135°15'0 0.0
2017-Oct-12 07:22N 34°39' E 135°15'0 0.0
2017-Oct-12 06:58N 34°39' E 135°15'0 0.0
2017-Oct-12 06:26N 34°39' E 135°15'0 0.0
2017-Oct-12 05:56N 34°39' E 135°15'0 0.0
2017-Oct-12 05:28N 34°39' E 135°15'0 0.0
2017-Oct-12 04:54N 34°39' E 135°15'0 0.0
2017-Oct-12 04:30N 34°39' E 135°15'0 0.0
2017-Oct-12 04:00N 34°39' E 135°15'0 0.0
2017-Oct-12 03:24N 34°39' E 135°15'0 0.0
2017-Oct-12 03:00N 34°39' E 135°15'2 3.6
2017-Oct-12 02:30N 34°38' E 135°16'612.0
2017-Oct-12 02:00N 34°33' E 135°14'816.0
2017-Oct-12 01:30N 34°26' E 135°07'816.8
2017-Oct-12 01:00N 34°20' E 135°01'815.7
2017-Oct-12 00:30N 34°12' E 134°57'5 9.5
2017-Oct-12 00:00N 34°08' E 134°56'917.3
2017-Oct-11 23:29N 33°59' E 134°57'  

Dump ship's entire track history